This is the latest recevied weather packets stored in our database for station/object KS5S. If no packets are shown the sender has not sent any weather packets the latest 1 day(s).
| Time | Temp. | Humidity | Pressure | Rain* | Wind** | Luminosity | Snow |
|---|---|---|---|---|---|---|---|
| 1836274685 | 27.22° C | 73% | 1014 hPa | 0 mm | 0.45 m/s, 164° | 0 W/m² | - |
| 1836274538 | 27.22° C | 74% | 1014.3 hPa | 0 mm | 1.79 m/s, 157° | 0 W/m² | - |
| 1836274383 | 27.22° C | 73% | 1014.1 hPa | 0 mm | 2.24 m/s, 151° | 0 W/m² | - |
| 1836274237 | 27.22° C | 74% | 1014.2 hPa | 0 mm | 2.24 m/s, 146° | 0 W/m² | - |
| 1836274081 | 27.22° C | 73% | 1014.1 hPa | 0 mm | 1.79 m/s, 153° | 0 W/m² | - |
| 1778054257 | 17.22° C | 81% | 1007 hPa | 0 mm | 1.79 m/s, 31° | 0 W/m² | - |
| 1778053954 | 17.22° C | 82% | 1007.4 hPa | 0 mm | 2.24 m/s, 27° | 0 W/m² | - |
| 1778053651 | 17.22° C | 81% | 1007.1 hPa | 0 mm | 2.68 m/s, 1° | 0 W/m² | - |
| 1778053348 | 17.22° C | 82% | 1007.2 hPa | 0 mm | 3.13 m/s, 39° | 0 W/m² | - |
| 1778053046 | 17.22° C | 82% | 1007.1 hPa | 0 mm | 1.79 m/s, 25° | 0 W/m² | - |
| 1778052743 | 17.22° C | 82% | 1007.2 hPa | 0 mm | 2.24 m/s, 4° | 0 W/m² | - |
| 1778052440 | 17.22° C | 81% | 1007.3 hPa | 0 mm | 2.68 m/s, 28° | 0 W/m² | - |
| 1778052137 | 17.78° C | 81% | 1007.5 hPa | 0 mm | 1.34 m/s, 28° | 0 W/m² | - |
| 1778051835 | 17.78° C | 81% | 1007.3 hPa | 0 mm | 1.34 m/s, 7° | 0 W/m² | - |
| 1778051533 | 17.78° C | 81% | 1007.3 hPa | 0 mm | 1.79 m/s, 24° | 0 W/m² | - |
| 1778051229 | 17.78° C | 81% | 1007.3 hPa | 0 mm | 3.58 m/s, 21° | 0 W/m² | - |
| 1778050926 | 17.78° C | 81% | 1007.3 hPa | 0 mm | 1.79 m/s, 36° | 0 W/m² | - |
| 1778050624 | 17.78° C | 81% | 1007.5 hPa | 0 mm | 1.79 m/s, 29° | 0 W/m² | - |
| 1778050321 | 17.78° C | 80% | 1007.3 hPa | 0 mm | 2.24 m/s, 17° | 0 W/m² | - |
| 1778050017 | 17.78° C | 81% | 1007.3 hPa | 0 mm | 2.24 m/s, 15° | 0 W/m² | - |
| 1778049713 | 17.78° C | 80% | 1007.3 hPa | 0 mm | 1.79 m/s, 10° | 0 W/m² | - |
| 1778049411 | 18.33° C | 81% | 1007.4 hPa | 0 mm | 1.34 m/s, 11° | 0 W/m² | - |
| 1778049108 | 18.33° C | 80% | 1007.5 hPa | 0 mm | 0.89 m/s, 4° | 0 W/m² | - |
| 1778048807 | 18.33° C | 80% | 1007.1 hPa | 0 mm | 1.34 m/s, 3° | 0 W/m² | - |
| 1778048503 | 18.33° C | 80% | 1007.1 hPa | 0 mm | 2.24 m/s, 6° | 0 W/m² | - |
* Rain latest hour (hover to see other rain measurements)
** Current wind speed in m/s (hover to see current wind gust speed)